createdAt,value
2022-12-05T00:00:10.098Z,111.85
2022-12-05T00:01:31.412Z,92.93
2022-12-05T00:02:33.187Z,105.05
2022-12-05T00:03:34.805Z,130.52
2022-12-05T00:04:39.404Z,115.95
2022-12-05T00:05:41.474Z,92.20
2022-12-05T00:06:44.017Z,126.30
2022-12-05T00:07:45.710Z,116.90
2022-12-05T00:08:48.557Z,88.40
2022-12-05T00:09:51.108Z,133.95
2022-12-05T00:10:55.656Z,124.43
2022-12-05T00:11:57.876Z,103.88
2022-12-05T00:12:59.634Z,137.10
2022-12-05T00:14:03.097Z,117.95
2022-12-05T00:15:05.613Z,131.05
2022-12-05T00:16:12.128Z,115.90
2022-12-05T00:17:13.950Z,119.93
2022-12-05T00:18:18.572Z,102.13
2022-12-05T00:19:20.228Z,97.40
2022-12-05T00:20:21.926Z,86.13
2022-12-05T00:21:25.866Z,92.18
2022-12-05T00:22:27.544Z,116.40
2022-12-05T00:23:29.265Z,154.95
2022-12-05T00:24:31.005Z,111.07
2022-12-05T00:25:32.608Z,116.65
2022-12-05T00:26:34.992Z,107.35
2022-12-05T00:27:36.636Z,105.90
2022-12-05T00:28:39.341Z,99.00
2022-12-05T00:29:41.931Z,81.18
2022-12-05T00:30:43.439Z,106.60
2022-12-05T00:31:45.184Z,123.00
2022-12-05T00:32:47.352Z,87.50
2022-12-05T00:33:49.812Z,108.88
2022-12-05T00:34:51.481Z,142.55
2022-12-05T00:35:53.187Z,140.57
2022-12-05T00:36:54.902Z,107.65
2022-12-05T00:37:56.545Z,99.03
2022-12-05T00:39:06.038Z,121.45
2022-12-05T00:40:08.196Z,152.55
2022-12-05T00:41:16.199Z,116.97
2022-12-05T00:42:18.147Z,116.38
2022-12-05T00:43:19.761Z,151.38
2022-12-05T00:44:21.683Z,133.25
2022-12-05T00:45:23.395Z,118.38
2022-12-05T00:46:26.822Z,144.57
2022-12-05T00:47:28.601Z,118.20
2022-12-05T00:48:30.806Z,110.80
2022-12-05T00:49:32.561Z,111.43
2022-12-05T00:50:34.395Z,103.47
2022-12-05T00:51:39.571Z,124.60
2022-12-05T00:52:41.412Z,124.40
2022-12-05T00:53:43.896Z,140.52
2022-12-05T00:54:45.498Z,137.38
2022-12-05T00:55:48.344Z,101.10
2022-12-05T00:56:52.667Z,108.75
2022-12-05T00:57:54.342Z,129.23
2022-12-05T00:58:57.390Z,105.18
2022-12-05T00:59:59.518Z,120.55
2022-12-05T01:01:10.114Z,137.68
2022-12-05T01:02:11.828Z,133.15
2022-12-05T01:03:14.635Z,141.57
2022-12-05T01:04:21.804Z,119.00
2022-12-05T01:05:23.418Z,105.80
2022-12-05T01:06:26.159Z,120.88
2022-12-05T01:07:27.847Z,115.13
2022-12-05T01:08:30.100Z,129.48
2022-12-05T01:09:32.002Z,141.98
2022-12-05T01:10:34.061Z,143.57
2022-12-05T01:11:40.936Z,118.30
2022-12-05T01:12:43.036Z,111.63
2022-12-05T01:13:45.258Z,114.10
2022-12-05T01:14:47.443Z,88.28
2022-12-05T01:15:49.266Z,130.38
2022-12-05T01:16:52.962Z,138.18
2022-12-05T01:17:54.549Z,116.55
2022-12-05T01:18:59.160Z,104.32
2022-12-05T01:20:00.847Z,131.73
2022-12-05T01:21:05.549Z,140.45
2022-12-05T01:22:07.231Z,82.70
2022-12-05T01:23:09.945Z,78.85
2022-12-05T01:24:12.267Z,115.03
2022-12-05T01:25:14.014Z,95.18
2022-12-05T01:26:18.734Z,100.88
2022-12-05T01:27:20.555Z,130.38
2022-12-05T01:28:22.700Z,100.35
2022-12-05T01:29:25.030Z,134.27
2022-12-05T01:30:27.021Z,128.45
2022-12-05T01:31:32.207Z,135.98
2022-12-05T01:32:34.012Z,127.78
2022-12-05T01:33:36.195Z,113.22
2022-12-05T01:34:38.068Z,103.50
2022-12-05T01:35:40.952Z,119.88
2022-12-05T01:36:43.095Z,129.70
2022-12-05T01:37:44.762Z,100.60
2022-12-05T01:38:46.765Z,116.13
2022-12-05T01:39:49.257Z,101.80
2022-12-05T01:40:50.868Z,126.32
2022-12-05T01:41:53.017Z,114.38
2022-12-05T01:42:55.018Z,115.75
2022-12-05T01:44:01.065Z,107.13
2022-12-05T01:45:16.575Z,141.13
2022-12-05T01:46:18.313Z,86.65
2022-12-05T01:47:20.476Z,90.32
2022-12-05T01:48:28.243Z,70.53
2022-12-05T01:49:35.088Z,101.85
2022-12-05T01:50:37.290Z,109.78
2022-12-05T01:51:41.550Z,90.93
2022-12-05T01:52:43.293Z,107.05
2022-12-05T01:53:45.661Z,103.82
2022-12-05T01:54:50.825Z,103.47
2022-12-05T01:55:55.317Z,84.30
2022-12-05T01:57:02.799Z,75.47
2022-12-05T01:58:08.350Z,92.50
2022-12-05T01:59:11.718Z,117.70
2022-12-05T02:00:16.919Z,123.47
2022-12-05T02:01:19.562Z,122.97
2022-12-05T02:02:21.827Z,149.48
2022-12-05T02:03:23.600Z,131.63
2022-12-05T02:04:25.397Z,84.30
2022-12-05T02:05:34.625Z,108.47
2022-12-05T02:06:36.682Z,124.20
2022-12-05T02:07:41.543Z,120.63
2022-12-05T02:08:45.094Z,104.82
2022-12-05T02:09:50.731Z,123.03
2022-12-05T02:10:56.863Z,94.10
2022-12-05T02:12:02.185Z,94.45
2022-12-05T02:13:18.244Z,105.32
2022-12-05T02:14:29.855Z,86.97
2022-12-05T02:15:57.549Z,108.47
2022-12-05T02:17:17.325Z,101.70
2022-12-05T02:18:37.479Z,95.88
2022-12-05T02:20:09.971Z,94.95
2022-12-05T02:22:02.737Z,120.28
2022-12-05T02:23:22.856Z,83.00
2022-12-05T02:24:57.302Z,110.38
2022-12-05T02:26:29.892Z,93.07
2022-12-05T02:28:10.251Z,79.28
2022-12-05T02:29:30.079Z,80.18
2022-12-05T02:30:40.624Z,95.22
2022-12-05T02:31:59.407Z,102.20
2022-12-05T02:33:11.599Z,93.07
2022-12-05T02:34:34.573Z,92.85
2022-12-05T02:35:42.476Z,104.70
2022-12-05T02:37:13.813Z,123.15
2022-12-05T02:39:56.089Z,88.43
2022-12-05T02:41:12.768Z,123.55
2022-12-05T02:42:22.890Z,115.00
2022-12-05T02:43:37.682Z,101.78
2022-12-05T02:45:00.518Z,107.25
2022-12-05T02:46:10.207Z,133.02
2022-12-05T02:47:16.511Z,136.77
2022-12-05T02:48:19.424Z,90.38
2022-12-05T02:49:25.586Z,103.25
2022-12-05T02:50:34.611Z,115.47
2022-12-05T02:51:43.377Z,140.30
2022-12-05T02:52:49.085Z,93.13
2022-12-05T02:53:51.958Z,93.55
2022-12-05T02:54:55.844Z,91.38
2022-12-05T02:55:58.306Z,102.65
2022-12-05T02:57:03.437Z,83.32
2022-12-05T02:58:16.022Z,111.15
2022-12-05T02:59:23.104Z,91.18
2022-12-05T03:00:25.458Z,113.22
2022-12-05T03:01:30.292Z,65.00
2022-12-05T03:02:34.872Z,94.85
2022-12-05T03:03:37.354Z,88.15
2022-12-05T03:04:39.642Z,112.18
2022-12-05T03:05:45.015Z,109.28
2022-12-05T03:07:03.808Z,114.53
2022-12-05T03:08:09.895Z,97.93
2022-12-05T03:09:13.332Z,112.68
2022-12-05T03:10:19.272Z,104.28
2022-12-05T03:11:21.441Z,98.30
2022-12-05T03:12:26.733Z,111.90
2022-12-05T03:13:35.762Z,98.10
2022-12-05T03:14:46.474Z,109.55
2022-12-05T03:15:55.060Z,86.43
2022-12-05T03:17:03.075Z,131.60
2022-12-05T03:18:29.639Z,97.22
2022-12-05T03:19:49.234Z,136.15
2022-12-05T03:21:05.164Z,127.07
2022-12-05T03:22:11.314Z,134.60
2022-12-05T03:23:20.940Z,113.95
2022-12-05T03:24:23.341Z,100.10
2022-12-05T03:25:34.816Z,105.43
2022-12-05T03:26:40.596Z,82.78
2022-12-05T03:27:54.045Z,102.63
2022-12-05T03:29:06.808Z,122.63
2022-12-05T03:30:22.848Z,110.57
2022-12-05T03:31:49.420Z,121.80
2022-12-05T03:33:10.602Z,123.55
2022-12-05T03:34:40.333Z,97.40
2022-12-05T03:35:44.913Z,101.22
2022-12-05T03:36:51.667Z,112.80
2022-12-05T03:37:59.944Z,121.82
2022-12-05T03:39:10.527Z,131.07
2022-12-05T03:40:21.294Z,149.90
2022-12-05T03:41:38.345Z,149.75
2022-12-05T03:42:47.506Z,108.03
2022-12-05T03:44:01.486Z,130.45
2022-12-05T03:45:10.691Z,117.38
2022-12-05T03:46:27.409Z,92.93
2022-12-05T03:47:29.094Z,122.30
2022-12-05T03:48:34.671Z,115.78
2022-12-05T03:49:50.277Z,131.68
2022-12-05T03:50:53.975Z,126.55
2022-12-05T03:52:02.962Z,131.50
2022-12-05T03:53:19.944Z,79.97
2022-12-05T03:54:29.616Z,79.90
2022-12-05T03:55:35.581Z,111.78
2022-12-05T03:56:43.121Z,95.80
2022-12-05T03:57:55.263Z,132.07
2022-12-05T03:59:05.886Z,127.55
2022-12-05T04:00:14.835Z,127.88
2022-12-05T04:01:21.159Z,110.05
2022-12-05T04:03:02.139Z,96.93
2022-12-05T04:04:10.685Z,126.50
2022-12-05T04:05:27.398Z,122.07
2022-12-05T04:06:33.747Z,114.25
2022-12-05T04:07:39.775Z,122.45
2022-12-05T04:08:51.543Z,120.35
2022-12-05T04:09:58.842Z,126.47
2022-12-05T04:11:05.291Z,161.48
2022-12-05T04:12:17.342Z,145.57
2022-12-05T04:13:26.462Z,130.50
2022-12-05T04:14:42.454Z,116.35
2022-12-05T04:16:22.801Z,124.38
2022-12-05T04:17:38.661Z,122.60
2022-12-05T04:18:46.907Z,117.43
2022-12-05T04:20:12.865Z,131.15
2022-12-05T04:21:36.683Z,129.98
2022-12-05T04:22:39.705Z,124.55
2022-12-05T04:23:47.577Z,121.80
2022-12-05T04:25:10.633Z,131.20
2022-12-05T04:26:28.678Z,152.63
2022-12-05T04:28:05.062Z,135.27
2022-12-05T04:29:19.363Z,147.40
2022-12-05T04:30:30.008Z,164.60
2022-12-05T04:31:40.956Z,133.02
2022-12-05T04:32:57.520Z,121.95
2022-12-05T04:34:05.709Z,162.18
2022-12-05T04:35:15.336Z,151.90
2022-12-05T04:36:25.714Z,141.40
2022-12-05T04:37:35.670Z,148.55
2022-12-05T04:38:46.630Z,120.55
2022-12-05T04:39:59.061Z,123.57
2022-12-05T04:41:03.374Z,134.90
2022-12-05T04:42:09.727Z,158.80
2022-12-05T04:43:14.349Z,133.25
2022-12-05T04:44:20.015Z,142.05
2022-12-05T04:45:24.678Z,100.57
2022-12-05T04:46:26.463Z,111.50
2022-12-05T04:47:38.142Z,111.18
2022-12-05T04:48:42.751Z,139.02
2022-12-05T04:49:49.319Z,135.93
2022-12-05T04:50:57.268Z,129.73
2022-12-05T04:52:04.116Z,130.20
2022-12-05T04:53:09.088Z,127.15
2022-12-05T04:54:25.324Z,147.38
2022-12-05T04:55:28.243Z,107.20
2022-12-05T04:56:34.237Z,119.32
2022-12-05T04:57:45.416Z,128.57
2022-12-05T04:58:47.757Z,129.13
2022-12-05T04:59:49.930Z,100.40
2022-12-05T05:01:15.199Z,137.20
2022-12-05T05:02:22.146Z,95.43
2022-12-05T05:03:50.164Z,116.80
2022-12-05T05:04:57.923Z,126.53
2022-12-05T05:06:00.050Z,126.25
2022-12-05T05:07:09.556Z,129.93
2022-12-05T05:08:25.775Z,151.45
2022-12-05T05:09:27.584Z,117.40
2022-12-05T05:10:45.559Z,132.45
2022-12-05T05:11:47.559Z,120.45
2022-12-05T05:12:50.391Z,133.32
2022-12-05T05:13:52.863Z,120.32
2022-12-05T05:14:54.579Z,130.50
2022-12-05T05:15:56.716Z,130.15
2022-12-05T05:16:58.677Z,147.40
2022-12-05T05:18:00.402Z,114.70
2022-12-05T05:19:02.243Z,121.47
2022-12-05T05:20:24.271Z,115.63
2022-12-05T05:21:32.718Z,127.18
2022-12-05T05:22:35.237Z,121.68
2022-12-05T05:23:37.651Z,128.10
2022-12-05T05:24:44.311Z,108.40
2022-12-05T05:25:48.635Z,124.90
2022-12-05T05:26:56.905Z,123.22
2022-12-05T05:28:02.544Z,128.35
2022-12-05T05:29:05.922Z,139.63
2022-12-05T05:30:08.979Z,124.57
2022-12-05T05:31:11.427Z,147.48
2022-12-05T05:32:15.392Z,124.50
2022-12-05T05:33:17.828Z,141.57
2022-12-05T05:34:19.689Z,143.70
2022-12-05T05:35:23.421Z,125.03
2022-12-05T05:36:27.551Z,149.00
2022-12-05T05:37:30.680Z,136.10
2022-12-05T05:38:39.351Z,146.10
2022-12-05T05:39:41.181Z,156.38
2022-12-05T05:40:42.977Z,104.25
2022-12-05T05:43:00.580Z,154.57
2022-12-05T05:44:02.806Z,135.90
2022-12-05T05:45:04.795Z,131.65
2022-12-05T05:46:06.604Z,101.00
2022-12-05T05:47:11.145Z,111.95
2022-12-05T05:48:14.312Z,128.32
2022-12-05T05:49:16.734Z,120.05
2022-12-05T05:50:21.722Z,106.07
2022-12-05T05:51:28.090Z,91.95
2022-12-05T05:52:34.534Z,76.75
2022-12-05T05:53:36.870Z,103.75
2022-12-05T05:54:38.644Z,109.38
2022-12-05T05:55:42.943Z,121.80
2022-12-05T05:56:44.962Z,112.72
2022-12-05T05:57:46.959Z,115.88
2022-12-05T05:58:55.070Z,126.10
2022-12-05T05:59:57.416Z,129.80
2022-12-05T06:01:07.993Z,123.63
2022-12-05T06:02:09.992Z,140.25
2022-12-05T06:03:14.755Z,109.15
2022-12-05T06:04:16.763Z,124.80
2022-12-05T06:05:18.634Z,103.35
2022-12-05T06:06:21.715Z,117.03
2022-12-05T06:07:23.329Z,121.63
2022-12-05T06:08:25.188Z,137.70
2022-12-05T06:09:26.971Z,125.03
2022-12-05T06:10:31.475Z,130.48
2022-12-05T06:11:33.301Z,133.95
2022-12-05T06:12:35.102Z,127.97
2022-12-05T06:13:37.287Z,129.35
2022-12-05T06:14:39.126Z,114.30
2022-12-05T06:15:40.925Z,130.60
2022-12-05T06:16:42.624Z,122.03
2022-12-05T06:17:44.307Z,130.35
2022-12-05T06:18:46.030Z,149.95
2022-12-05T06:19:47.725Z,130.73
2022-12-05T06:20:56.613Z,133.73
2022-12-05T06:22:01.336Z,124.55
2022-12-05T06:23:03.178Z,140.77
2022-12-05T06:24:07.575Z,128.98
2022-12-05T06:25:12.352Z,138.43
2022-12-05T06:26:18.652Z,138.88
2022-12-05T06:27:22.906Z,132.00
2022-12-05T06:28:27.695Z,103.32
2022-12-05T06:29:34.211Z,134.70
2022-12-05T06:30:38.547Z,156.73
2022-12-05T06:31:42.100Z,133.20
2022-12-05T06:32:44.018Z,129.85
2022-12-05T06:33:46.540Z,135.32
2022-12-05T06:34:50.470Z,115.38
2022-12-05T06:36:02.598Z,111.78
2022-12-05T06:37:04.996Z,135.27
2022-12-05T06:38:07.944Z,137.20
2022-12-05T06:39:10.223Z,150.57
2022-12-05T06:40:13.167Z,176.88
2022-12-05T06:41:17.607Z,114.97
2022-12-05T06:42:22.191Z,138.25
2022-12-05T06:43:24.361Z,145.25
2022-12-05T06:44:27.553Z,135.90
2022-12-05T06:45:29.460Z,131.68
2022-12-05T06:46:31.424Z,130.32
2022-12-05T06:47:33.337Z,132.43
2022-12-05T06:48:35.647Z,143.57
2022-12-05T06:49:38.265Z,135.85
2022-12-05T06:50:40.753Z,155.45
2022-12-05T06:51:42.424Z,115.35
2022-12-05T06:52:44.352Z,119.00
2022-12-05T06:53:46.263Z,110.93
2022-12-05T06:54:48.084Z,128.80
2022-12-05T06:56:00.818Z,123.05
2022-12-05T06:57:02.396Z,144.48
2022-12-05T06:58:04.023Z,123.93
2022-12-05T06:59:06.664Z,126.50
2022-12-05T07:00:28.632Z,116.28
2022-12-05T07:01:39.539Z,120.55
2022-12-05T07:02:42.136Z,129.68
2022-12-05T07:03:44.224Z,105.10
2022-12-05T07:04:45.976Z,90.65
2022-12-05T07:05:47.633Z,128.75
2022-12-05T07:06:51.003Z,121.97
2022-12-05T07:07:55.739Z,113.47
2022-12-05T07:08:57.638Z,122.93
2022-12-05T07:09:59.471Z,142.02
2022-12-05T07:11:02.553Z,112.55
2022-12-05T07:12:04.508Z,111.95
2022-12-05T07:13:10.077Z,98.40
2022-12-05T07:14:39.052Z,110.10
2022-12-05T07:15:38.892Z,101.68
2022-12-05T07:16:40.829Z,148.65
2022-12-05T07:17:42.527Z,140.98
2022-12-05T07:18:44.114Z,119.47
2022-12-05T07:19:48.915Z,133.65
2022-12-05T07:21:11.779Z,156.50
2022-12-05T07:22:16.147Z,120.30
2022-12-05T07:23:18.168Z,96.95
2022-12-05T07:24:19.883Z,105.93
2022-12-05T07:25:23.012Z,112.80
2022-12-05T07:26:25.084Z,92.70
2022-12-05T07:27:27.888Z,104.47
2022-12-05T07:28:30.077Z,156.90
2022-12-05T07:29:31.992Z,152.57
2022-12-05T07:30:34.034Z,159.20
2022-12-05T07:31:37.177Z,146.85
2022-12-05T07:32:41.535Z,151.60
2022-12-05T07:33:43.250Z,155.95
2022-12-05T07:34:44.979Z,155.15
2022-12-05T07:35:49.259Z,160.32
2022-12-05T07:36:50.942Z,97.93
2022-12-05T07:37:55.240Z,164.45
2022-12-05T07:39:00.782Z,152.07
2022-12-05T07:40:02.856Z,137.50
2022-12-05T07:41:12.824Z,124.25
2022-12-05T07:42:14.976Z,151.48
2022-12-05T07:43:16.572Z,157.05
2022-12-05T07:44:18.268Z,148.88
2022-12-05T07:45:20.906Z,152.32
2022-12-05T07:46:23.764Z,118.15
2022-12-05T07:47:25.527Z,136.57
2022-12-05T07:48:27.333Z,164.55
2022-12-05T07:49:29.797Z,137.32
2022-12-05T07:50:31.467Z,93.15
2022-12-05T07:51:33.694Z,109.50
2022-12-05T07:52:35.479Z,109.85
2022-12-05T07:53:38.383Z,118.50
2022-12-05T07:54:40.144Z,139.90
2022-12-05T07:55:41.855Z,92.78
2022-12-05T07:56:47.741Z,121.35
2022-12-05T07:57:49.990Z,74.03
2022-12-05T07:58:51.607Z,78.60
2022-12-05T07:59:54.738Z,97.72
2022-12-05T08:00:57.297Z,92.30
2022-12-05T08:01:58.982Z,91.57
2022-12-05T08:03:03.249Z,88.95
2022-12-05T08:04:05.095Z,97.28
2022-12-05T08:05:07.251Z,116.82
2022-12-05T08:06:12.573Z,99.53
2022-12-05T08:07:14.540Z,100.90
2022-12-05T08:08:16.361Z,84.75
2022-12-05T08:09:18.080Z,104.00
2022-12-05T08:10:22.491Z,94.97
2022-12-05T08:11:28.916Z,102.35
2022-12-05T08:12:30.615Z,108.45
2022-12-05T08:13:35.111Z,67.25
2022-12-05T08:14:36.757Z,86.97
2022-12-05T08:15:38.706Z,87.70
2022-12-05T08:16:40.557Z,91.20
2022-12-05T08:17:42.294Z,97.20
2022-12-05T08:18:44.541Z,79.95
2022-12-05T08:19:46.279Z,93.95
2022-12-05T08:20:48.184Z,83.10
2022-12-05T08:21:49.967Z,112.68
2022-12-05T08:22:53.676Z,107.20
2022-12-05T08:23:55.964Z,96.55
2022-12-05T08:24:57.656Z,86.35
2022-12-05T08:26:03.606Z,88.57
2022-12-05T08:27:06.427Z,77.68
2022-12-05T08:28:08.142Z,91.53
2022-12-05T08:29:12.562Z,105.32
2022-12-05T08:30:15.018Z,63.95
2022-12-05T08:31:19.536Z,85.93
2022-12-05T08:32:25.192Z,88.88
2022-12-05T08:33:26.930Z,105.07
2022-12-05T08:34:28.744Z,90.47
2022-12-05T08:35:30.379Z,97.65
2022-12-05T08:36:32.584Z,91.82
2022-12-05T08:37:34.375Z,95.60
2022-12-05T08:38:36.894Z,86.55
2022-12-05T08:39:41.498Z,86.88
2022-12-05T08:40:43.423Z,89.93
2022-12-05T08:41:46.907Z,84.07
2022-12-05T08:42:48.611Z,67.75
2022-12-05T08:43:50.346Z,86.43
2022-12-05T08:44:52.187Z,65.90
2022-12-05T08:45:54.104Z,84.82
2022-12-05T08:46:59.165Z,83.20
2022-12-05T08:48:01.010Z,89.85
2022-12-05T08:49:04.283Z,68.43
2022-12-05T08:50:07.057Z,67.35
2022-12-05T08:51:12.072Z,88.07
2022-12-05T08:52:13.695Z,85.47
2022-12-05T08:53:15.891Z,75.40
2022-12-05T08:54:18.246Z,59.13
2022-12-05T08:55:20.002Z,96.25
2022-12-05T08:56:27.367Z,88.95
2022-12-05T08:57:30.596Z,96.72
2022-12-05T08:58:32.776Z,86.03
2022-12-05T08:59:35.409Z,80.03
2022-12-05T09:00:37.495Z,78.25
2022-12-05T09:01:39.905Z,86.38
2022-12-05T09:02:41.948Z,80.80
2022-12-05T09:03:47.857Z,85.18
2022-12-05T09:04:53.986Z,68.97
2022-12-05T09:06:05.844Z,58.65
2022-12-05T09:07:08.440Z,61.03
2022-12-05T09:08:10.432Z,81.93
2022-12-05T09:09:12.689Z,51.70
2022-12-05T09:10:14.340Z,46.50
2022-12-05T09:11:19.182Z,65.78
2022-12-05T09:12:20.957Z,65.82
2022-12-05T09:13:22.737Z,54.88
2022-12-05T09:14:24.840Z,58.42
2022-12-05T09:15:26.813Z,56.08
2022-12-05T09:16:37.529Z,53.80
2022-12-05T09:17:40.829Z,58.72
2022-12-05T09:18:43.732Z,63.38
2022-12-05T09:19:45.659Z,58.25
2022-12-05T09:20:47.416Z,66.90
2022-12-05T09:21:49.478Z,56.25
2022-12-05T09:22:53.088Z,59.97
2022-12-05T09:23:55.477Z,60.55
2022-12-05T09:24:57.461Z,70.28
2022-12-05T09:26:02.438Z,55.17
2022-12-05T09:27:04.091Z,71.53
2022-12-05T09:28:05.758Z,51.45
2022-12-05T09:29:16.282Z,52.90
2022-12-05T09:30:18.949Z,64.32
2022-12-05T09:31:24.429Z,68.22
2022-12-05T09:32:28.867Z,68.93
2022-12-05T09:33:32.293Z,54.10
2022-12-05T09:34:35.029Z,51.70
2022-12-05T09:35:40.592Z,55.08
2022-12-05T09:36:43.055Z,67.40
2022-12-05T09:37:44.780Z,59.03
2022-12-05T09:38:47.200Z,47.03
2022-12-05T09:39:49.136Z,61.90
2022-12-05T09:41:04.554Z,53.08
2022-12-05T09:42:08.004Z,57.75
2022-12-05T09:43:45.404Z,64.57
2022-12-05T09:45:05.979Z,54.83
2022-12-05T09:46:35.428Z,55.38
2022-12-05T09:47:59.330Z,57.50
2022-12-05T09:49:04.502Z,50.15
2022-12-05T09:50:14.999Z,58.08
2022-12-05T09:51:19.666Z,60.75
2022-12-05T09:52:41.472Z,61.97
2022-12-05T09:53:44.619Z,45.42
2022-12-05T09:54:47.544Z,46.97
2022-12-05T09:56:06.674Z,48.67
2022-12-05T09:57:11.212Z,47.03
2022-12-05T09:58:41.200Z,52.20
2022-12-05T09:59:43.133Z,53.15
2022-12-05T10:00:45.188Z,42.95
2022-12-05T10:01:49.925Z,44.72
2022-12-05T10:03:10.304Z,43.83
2022-12-05T10:04:35.067Z,45.78
2022-12-05T10:06:11.788Z,45.17
2022-12-05T10:07:25.478Z,44.20
2022-12-05T10:08:33.670Z,45.88
2022-12-05T10:10:17.015Z,58.42
2022-12-05T10:11:34.828Z,47.35
2022-12-05T10:13:04.050Z,46.85
2022-12-05T10:14:15.988Z,48.40
2022-12-05T10:15:37.779Z,45.95
2022-12-05T10:16:55.205Z,56.35
2022-12-05T10:18:03.686Z,68.90
2022-12-05T10:19:17.310Z,62.15
2022-12-05T10:20:51.809Z,50.10
2022-12-05T10:22:20.109Z,47.50
2022-12-05T10:24:05.768Z,49.78
2022-12-05T10:25:14.706Z,52.10
2022-12-05T10:26:24.167Z,61.17
2022-12-05T10:27:43.044Z,50.38
2022-12-05T10:29:01.150Z,49.65
2022-12-05T10:30:25.900Z,52.45
2022-12-05T10:31:38.210Z,52.60
2022-12-05T10:32:57.015Z,53.78
2022-12-05T10:34:13.999Z,48.25
2022-12-05T10:35:37.156Z,55.78
2022-12-05T10:36:54.950Z,49.38
2022-12-05T10:38:05.777Z,48.28
2022-12-05T10:39:26.869Z,49.63
2022-12-05T10:42:51.661Z,44.47
2022-12-05T10:45:55.206Z,41.67
2022-12-05T10:47:12.370Z,42.95
2022-12-05T10:48:52.748Z,45.45
2022-12-05T10:50:39.552Z,38.25
2022-12-05T10:53:27.334Z,39.60
2022-12-05T10:54:33.133Z,39.33
2022-12-05T10:55:40.510Z,32.30
2022-12-05T10:56:48.122Z,28.73
2022-12-05T10:57:53.282Z,26.80
2022-12-05T10:58:57.566Z,24.13
2022-12-05T11:00:13.623Z,24.10
2022-12-05T11:01:16.911Z,22.08
2022-12-05T11:02:32.210Z,20.88
2022-12-05T11:03:40.646Z,19.35
2022-12-05T11:04:45.551Z,21.15
2022-12-05T11:05:51.002Z,17.45
2022-12-05T11:06:55.561Z,16.77
2022-12-05T11:07:59.886Z,21.77
2022-12-05T11:09:47.284Z,17.70
2022-12-05T11:10:49.848Z,12.82
2022-12-05T11:12:20.905Z,11.27
2022-12-05T11:13:26.885Z,11.57
2022-12-05T11:14:30.060Z,11.47
2022-12-05T11:15:33.561Z,14.23
2022-12-05T11:16:38.527Z,14.43
2022-12-05T11:17:40.615Z,13.37
2022-12-05T11:18:44.809Z,13.33
2022-12-05T11:19:46.513Z,11.43
2022-12-05T11:20:48.288Z,17.10
2022-12-05T11:21:50.838Z,11.30
2022-12-05T11:22:55.754Z,10.97
2022-12-05T11:23:59.217Z,12.07
2022-12-05T11:25:01.566Z,11.50
2022-12-05T11:26:04.029Z,13.87
2022-12-05T11:27:26.333Z,10.60
2022-12-05T11:28:34.235Z,13.20
2022-12-05T11:29:38.549Z,11.57
2022-12-05T11:30:40.534Z,11.07
2022-12-05T11:31:52.396Z,11.93
2022-12-05T11:33:29.198Z,10.87
2022-12-05T11:34:49.620Z,11.53
2022-12-05T11:36:17.572Z,12.73
2022-12-05T11:37:31.136Z,11.20
2022-12-05T11:38:35.016Z,12.53
2022-12-05T11:39:36.675Z,12.90
2022-12-05T11:40:49.772Z,18.13
2022-12-05T11:42:03.960Z,11.97
2022-12-05T11:43:08.638Z,10.83
2022-12-05T11:44:29.275Z,13.17
2022-12-05T11:46:05.045Z,16.93
2022-12-05T11:47:28.870Z,15.30
2022-12-05T11:48:52.628Z,16.50
2022-12-05T11:50:13.704Z,18.90
2022-12-05T11:51:22.161Z,16.50
2022-12-05T11:55:04.524Z,28.63
2022-12-05T11:56:33.810Z,24.90
2022-12-05T11:58:00.806Z,22.40
2022-12-05T11:59:50.260Z,18.77
2022-12-05T12:01:07.719Z,17.90
2022-12-05T12:02:21.485Z,23.67
2022-12-05T12:03:35.554Z,20.53
2022-12-05T12:05:06.485Z,27.53
2022-12-05T12:06:36.779Z,20.20
2022-12-05T12:07:50.333Z,22.77
2022-12-05T12:09:10.747Z,19.77
2022-12-05T12:10:31.305Z,23.80
2022-12-05T12:11:53.451Z,20.00
2022-12-05T12:13:01.165Z,30.60
2022-12-05T12:14:57.239Z,24.73
2022-12-05T12:16:28.130Z,16.53
2022-12-05T12:17:44.855Z,21.23
2022-12-05T12:18:52.991Z,36.87
2022-12-05T12:20:28.407Z,22.27
2022-12-05T12:22:04.884Z,16.30
2022-12-05T12:23:40.818Z,17.30
2022-12-05T12:24:56.812Z,19.70
2022-12-05T12:26:12.029Z,14.23
2022-12-05T12:27:27.794Z,16.87
2022-12-05T12:28:52.216Z,11.63
2022-12-05T12:30:10.810Z,10.67
2022-12-05T12:31:12.883Z,11.27
2022-12-05T12:32:27.444Z,8.40
2022-12-05T12:33:51.155Z,8.23
2022-12-05T12:35:28.195Z,8.57
2022-12-05T12:36:53.989Z,7.82
2022-12-05T12:38:14.259Z,8.30
2022-12-05T12:39:43.826Z,11.13
2022-12-05T12:41:17.714Z,10.25
2022-12-05T12:42:32.519Z,9.93
2022-12-05T12:43:54.689Z,8.15
2022-12-05T12:45:39.569Z,8.00
2022-12-05T12:47:26.373Z,6.72
2022-12-05T12:49:02.904Z,7.60
2022-12-05T12:50:29.485Z,8.10
2022-12-05T12:51:33.580Z,9.10
2022-12-05T12:53:06.090Z,8.52
2022-12-05T12:54:54.824Z,7.45
2022-12-05T12:56:20.193Z,6.75
2022-12-05T12:57:43.908Z,8.50
2022-12-05T12:59:11.133Z,6.95
2022-12-05T13:00:21.767Z,6.60
2022-12-05T13:01:26.400Z,7.20
2022-12-05T13:02:47.817Z,8.65
2022-12-05T13:03:55.597Z,9.02
2022-12-05T13:05:29.417Z,7.63
2022-12-05T13:06:50.120Z,7.43
2022-12-05T13:07:57.992Z,8.45
2022-12-05T13:09:06.189Z,8.25
2022-12-05T13:10:40.960Z,8.60
2022-12-05T13:11:45.740Z,6.88
2022-12-05T13:12:48.999Z,9.35
2022-12-05T13:13:55.302Z,8.00
2022-12-05T13:15:05.190Z,7.95
2022-12-05T13:16:08.833Z,8.82
2022-12-05T13:17:19.310Z,8.13
2022-12-05T13:18:23.799Z,10.60
2022-12-05T13:19:42.996Z,8.52
2022-12-05T13:20:48.235Z,8.98
2022-12-05T13:21:50.581Z,8.07
2022-12-05T13:22:56.419Z,12.02
2022-12-05T13:24:03.422Z,8.75
2022-12-05T13:25:05.856Z,10.73
2022-12-05T13:26:10.887Z,15.45
2022-12-05T13:27:25.442Z,10.85
2022-12-05T13:28:35.935Z,9.25
2022-12-05T13:29:48.810Z,12.02
2022-12-05T13:31:05.978Z,11.90
2022-12-05T13:32:25.897Z,10.88
2022-12-05T13:33:35.879Z,14.52
2022-12-05T13:34:46.163Z,11.48
2022-12-05T13:36:07.110Z,10.30
2022-12-05T13:37:47.915Z,8.95
2022-12-05T13:39:09.233Z,8.60
2022-12-05T13:40:45.104Z,9.00
2022-12-05T13:42:12.171Z,8.70
2022-12-05T13:43:18.893Z,11.18
2022-12-05T13:44:33.335Z,8.52
2022-12-05T13:45:35.536Z,8.93
2022-12-05T13:46:40.302Z,10.95
2022-12-05T13:48:00.775Z,9.60
2022-12-05T13:49:17.213Z,9.13
2022-12-05T13:50:29.678Z,8.95
2022-12-05T13:51:36.153Z,7.72
2022-12-05T13:53:02.138Z,10.02
2022-12-05T13:54:19.434Z,14.95
2022-12-05T13:55:25.123Z,10.35
2022-12-05T13:56:46.767Z,9.32
2022-12-05T13:57:54.659Z,9.80
2022-12-05T13:58:58.298Z,8.07
2022-12-05T14:00:09.717Z,9.23
2022-12-05T14:01:51.905Z,9.32
2022-12-05T14:02:59.574Z,8.70
2022-12-05T14:04:04.604Z,9.70
2022-12-05T14:05:38.074Z,10.88
2022-12-05T14:07:00.142Z,10.15
2022-12-05T14:08:31.644Z,10.27
2022-12-05T14:09:51.080Z,8.00
2022-12-05T14:10:53.091Z,9.98
2022-12-05T14:12:10.269Z,17.17
2022-12-05T14:13:15.333Z,7.75
2022-12-05T14:14:55.893Z,8.90
2022-12-05T14:16:25.544Z,10.18
2022-12-05T14:17:32.525Z,8.18
2022-12-05T14:18:46.460Z,9.35
2022-12-05T14:20:00.363Z,8.27
2022-12-05T14:21:09.032Z,7.90
2022-12-05T14:22:39.946Z,8.10
2022-12-05T14:23:53.163Z,10.10
2022-12-05T14:25:10.564Z,7.75
2022-12-05T14:26:38.365Z,9.77
2022-12-05T14:27:41.602Z,11.75
2022-12-05T14:28:58.591Z,8.43
2022-12-05T14:30:05.475Z,9.23
2022-12-05T14:31:30.482Z,11.73
2022-12-05T14:32:38.865Z,7.55
2022-12-05T14:33:41.411Z,8.20
2022-12-05T14:34:54.778Z,7.80
2022-12-05T14:36:06.398Z,8.60
2022-12-05T14:37:26.558Z,7.22
2022-12-05T14:38:31.259Z,9.30
2022-12-05T14:39:51.951Z,9.35
2022-12-05T14:40:54.068Z,15.50
2022-12-05T14:41:58.482Z,14.25
2022-12-05T14:43:04.848Z,11.65
2022-12-05T14:44:18.517Z,10.73
2022-12-05T14:45:20.684Z,10.48
2022-12-05T14:46:32.176Z,16.58
2022-12-05T14:47:34.998Z,12.05
2022-12-05T14:48:43.886Z,12.93
2022-12-05T14:50:24.560Z,9.70
2022-12-05T14:51:35.331Z,13.80